sensor_id;sensor_type;location;lat;lon;timestamp;temperature;humidity
16995;DHT22;8614;48.522;9.206;2022-10-14T00:00:32;12.50;99.90
16995;DHT22;8614;48.522;9.206;2022-10-14T00:02:59;12.60;99.90
16995;DHT22;8614;48.522;9.206;2022-10-14T00:05:26;12.60;99.90
16995;DHT22;8614;48.522;9.206;2022-10-14T00:07:53;12.60;99.90
16995;DHT22;8614;48.522;9.206;2022-10-14T00:10:20;12.60;99.90
16995;DHT22;8614;48.522;9.206;2022-10-14T00:12:47;12.60;99.90
16995;DHT22;8614;48.522;9.206;2022-10-14T00:15:16;12.60;99.90
16995;DHT22;8614;48.522;9.206;2022-10-14T00:17:43;12.60;99.90
16995;DHT22;8614;48.522;9.206;2022-10-14T00:20:10;12.60;99.90
16995;DHT22;8614;48.522;9.206;2022-10-14T00:22:37;12.60;99.90
16995;DHT22;8614;48.522;9.206;2022-10-14T00:25:04;12.60;99.90
16995;DHT22;8614;48.522;9.206;2022-10-14T00:27:32;12.60;99.90
16995;DHT22;8614;48.522;9.206;2022-10-14T00:30:01;12.60;99.90
16995;DHT22;8614;48.522;9.206;2022-10-14T00:32:29;12.60;99.90
16995;DHT22;8614;48.522;9.206;2022-10-14T00:34:56;12.60;99.90
16995;DHT22;8614;48.522;9.206;2022-10-14T00:37:23;12.60;99.90
16995;DHT22;8614;48.522;9.206;2022-10-14T00:39:50;12.60;99.90
16995;DHT22;8614;48.522;9.206;2022-10-14T00:42:23;12.60;99.90
16995;DHT22;8614;48.522;9.206;2022-10-14T00:45:01;12.60;99.90
16995;DHT22;8614;48.522;9.206;2022-10-14T00:47:30;12.60;99.90
16995;DHT22;8614;48.522;9.206;2022-10-14T00:49:58;12.60;99.90
16995;DHT22;8614;48.522;9.206;2022-10-14T00:52:28;12.70;99.90
16995;DHT22;8614;48.522;9.206;2022-10-14T00:54:59;12.70;99.90
16995;DHT22;8614;48.522;9.206;2022-10-14T00:57:27;12.70;99.90
16995;DHT22;8614;48.522;9.206;2022-10-14T00:59:59;12.70;99.90
16995;DHT22;8614;48.522;9.206;2022-10-14T01:02:29;12.70;99.90
16995;DHT22;8614;48.522;9.206;2022-10-14T01:04:57;12.70;99.90
16995;DHT22;8614;48.522;9.206;2022-10-14T01:07:34;12.70;99.90
16995;DHT22;8614;48.522;9.206;2022-10-14T01:10:08;12.70;99.90
16995;DHT22;8614;48.522;9.206;2022-10-14T01:12:47;12.70;99.90
16995;DHT22;8614;48.522;9.206;2022-10-14T01:15:21;12.70;99.90
16995;DHT22;8614;48.522;9.206;2022-10-14T01:17:59;12.70;99.90
16995;DHT22;8614;48.522;9.206;2022-10-14T01:20:48;12.80;99.90
16995;DHT22;8614;48.522;9.206;2022-10-14T01:23:39;12.70;99.90
16995;DHT22;8614;48.522;9.206;2022-10-14T01:26:22;12.70;99.90
16995;DHT22;8614;48.522;9.206;2022-10-14T01:29:01;12.70;99.90
16995;DHT22;8614;48.522;9.206;2022-10-14T01:31:34;12.80;99.90
16995;DHT22;8614;48.522;9.206;2022-10-14T01:34:08;12.80;99.90
16995;DHT22;8614;48.522;9.206;2022-10-14T01:36:40;12.80;99.90
16995;DHT22;8614;48.522;9.206;2022-10-14T01:39:13;12.70;99.90
16995;DHT22;8614;48.522;9.206;2022-10-14T01:41:45;12.70;99.90
16995;DHT22;8614;48.522;9.206;2022-10-14T01:44:13;12.70;99.90
16995;DHT22;8614;48.522;9.206;2022-10-14T01:46:46;12.70;99.90
16995;DHT22;8614;48.522;9.206;2022-10-14T01:49:22;12.70;99.90
16995;DHT22;8614;48.522;9.206;2022-10-14T01:51:54;12.80;99.90
16995;DHT22;8614;48.522;9.206;2022-10-14T01:54:26;12.70;99.90
16995;DHT22;8614;48.522;9.206;2022-10-14T01:56:58;12.70;99.90
16995;DHT22;8614;48.522;9.206;2022-10-14T01:59:27;12.70;99.90
16995;DHT22;8614;48.522;9.206;2022-10-14T02:01:56;12.70;99.90
16995;DHT22;8614;48.522;9.206;2022-10-14T02:04:23;12.80;99.90
16995;DHT22;8614;48.522;9.206;2022-10-14T02:06:58;12.80;99.90
16995;DHT22;8614;48.522;9.206;2022-10-14T02:09:32;12.80;99.90
16995;DHT22;8614;48.522;9.206;2022-10-14T02:12:12;12.80;99.90
16995;DHT22;8614;48.522;9.206;2022-10-14T02:14:48;12.80;99.90
16995;DHT22;8614;48.522;9.206;2022-10-14T02:17:22;12.90;99.90
16995;DHT22;8614;48.522;9.206;2022-10-14T02:19:54;12.80;99.90
16995;DHT22;8614;48.522;9.206;2022-10-14T02:22:26;12.80;99.90
16995;DHT22;8614;48.522;9.206;2022-10-14T02:24:58;12.90;99.90
16995;DHT22;8614;48.522;9.206;2022-10-14T02:27:28;12.90;99.90
16995;DHT22;8614;48.522;9.206;2022-10-14T02:29:58;12.90;99.90
16995;DHT22;8614;48.522;9.206;2022-10-14T02:32:27;12.90;99.90
16995;DHT22;8614;48.522;9.206;2022-10-14T02:34:57;12.90;99.90
16995;DHT22;8614;48.522;9.206;2022-10-14T02:37:26;12.90;99.90
16995;DHT22;8614;48.522;9.206;2022-10-14T02:39:59;12.90;99.90
16995;DHT22;8614;48.522;9.206;2022-10-14T02:42:30;12.90;99.90
16995;DHT22;8614;48.522;9.206;2022-10-14T02:44:59;12.90;99.90
16995;DHT22;8614;48.522;9.206;2022-10-14T02:47:28;12.90;99.90
16995;DHT22;8614;48.522;9.206;2022-10-14T02:49:55;12.90;99.90
16995;DHT22;8614;48.522;9.206;2022-10-14T02:52:23;12.90;99.90
16995;DHT22;8614;48.522;9.206;2022-10-14T02:54:51;12.90;99.90
16995;DHT22;8614;48.522;9.206;2022-10-14T02:57:18;12.90;99.90
16995;DHT22;8614;48.522;9.206;2022-10-14T02:59:47;12.90;99.90
16995;DHT22;8614;48.522;9.206;2022-10-14T03:02:14;12.80;99.90
16995;DHT22;8614;48.522;9.206;2022-10-14T03:04:42;12.80;99.90
16995;DHT22;8614;48.522;9.206;2022-10-14T03:07:10;12.80;99.90
16995;DHT22;8614;48.522;9.206;2022-10-14T03:09:43;12.80;99.90
16995;DHT22;8614;48.522;9.206;2022-10-14T03:12:11;12.70;99.90
16995;DHT22;8614;48.522;9.206;2022-10-14T03:14:37;12.80;99.90
16995;DHT22;8614;48.522;9.206;2022-10-14T03:17:06;12.70;99.90
16995;DHT22;8614;48.522;9.206;2022-10-14T03:19:33;12.60;99.90
16995;DHT22;8614;48.522;9.206;2022-10-14T03:22:02;12.60;99.90
16995;DHT22;8614;48.522;9.206;2022-10-14T03:24:30;12.60;99.90
16995;DHT22;8614;48.522;9.206;2022-10-14T03:27:15;12.60;99.90
16995;DHT22;8614;48.522;9.206;2022-10-14T03:29:44;12.60;99.90
16995;DHT22;8614;48.522;9.206;2022-10-14T03:32:17;12.60;99.90
16995;DHT22;8614;48.522;9.206;2022-10-14T03:35:10;12.50;99.90
16995;DHT22;8614;48.522;9.206;2022-10-14T03:37:41;12.50;99.90
16995;DHT22;8614;48.522;9.206;2022-10-14T03:40:09;12.50;99.90
16995;DHT22;8614;48.522;9.206;2022-10-14T03:42:36;12.50;99.90
16995;DHT22;8614;48.522;9.206;2022-10-14T03:45:04;12.50;99.90
16995;DHT22;8614;48.522;9.206;2022-10-14T03:47:31;12.50;99.90
16995;DHT22;8614;48.522;9.206;2022-10-14T03:49:59;12.50;99.90
16995;DHT22;8614;48.522;9.206;2022-10-14T03:52:49;12.50;99.90
16995;DHT22;8614;48.522;9.206;2022-10-14T03:55:24;12.50;99.90
16995;DHT22;8614;48.522;9.206;2022-10-14T03:57:52;12.40;99.90
16995;DHT22;8614;48.522;9.206;2022-10-14T04:00:19;12.40;99.90
16995;DHT22;8614;48.522;9.206;2022-10-14T04:02:55;12.50;99.90
16995;DHT22;8614;48.522;9.206;2022-10-14T04:05:48;12.40;99.90
16995;DHT22;8614;48.522;9.206;2022-10-14T04:08:21;12.40;99.90
16995;DHT22;8614;48.522;9.206;2022-10-14T04:10:54;12.40;99.90
16995;DHT22;8614;48.522;9.206;2022-10-14T04:13:23;12.40;99.90
16995;DHT22;8614;48.522;9.206;2022-10-14T04:15:50;12.40;99.90
16995;DHT22;8614;48.522;9.206;2022-10-14T04:18:24;12.50;99.90
16995;DHT22;8614;48.522;9.206;2022-10-14T04:20:55;12.50;99.90
16995;DHT22;8614;48.522;9.206;2022-10-14T04:23:26;12.40;99.90
16995;DHT22;8614;48.522;9.206;2022-10-14T04:26:02;12.50;99.90
16995;DHT22;8614;48.522;9.206;2022-10-14T04:28:29;12.40;99.90
16995;DHT22;8614;48.522;9.206;2022-10-14T04:31:02;12.40;99.90
16995;DHT22;8614;48.522;9.206;2022-10-14T04:33:40;12.40;99.90
16995;DHT22;8614;48.522;9.206;2022-10-14T04:36:15;12.40;99.90
16995;DHT22;8614;48.522;9.206;2022-10-14T04:38:44;12.40;99.90
16995;DHT22;8614;48.522;9.206;2022-10-14T04:41:11;12.40;99.90
16995;DHT22;8614;48.522;9.206;2022-10-14T04:43:44;12.40;99.90
16995;DHT22;8614;48.522;9.206;2022-10-14T04:46:27;12.40;99.90
16995;DHT22;8614;48.522;9.206;2022-10-14T04:48:56;12.50;99.90
16995;DHT22;8614;48.522;9.206;2022-10-14T04:51:27;12.40;99.90
16995;DHT22;8614;48.522;9.206;2022-10-14T04:54:19;12.40;99.90
16995;DHT22;8614;48.522;9.206;2022-10-14T04:56:52;12.50;99.90
16995;DHT22;8614;48.522;9.206;2022-10-14T04:59:19;12.40;99.90
16995;DHT22;8614;48.522;9.206;2022-10-14T05:01:55;12.40;99.90
16995;DHT22;8614;48.522;9.206;2022-10-14T05:04:29;12.40;99.90
16995;DHT22;8614;48.522;9.206;2022-10-14T05:06:56;12.40;99.90
16995;DHT22;8614;48.522;9.206;2022-10-14T05:09:25;12.40;99.90
16995;DHT22;8614;48.522;9.206;2022-10-14T05:11:52;12.40;99.90
16995;DHT22;8614;48.522;9.206;2022-10-14T05:14:22;12.40;99.90
16995;DHT22;8614;48.522;9.206;2022-10-14T05:17:00;12.40;99.90
16995;DHT22;8614;48.522;9.206;2022-10-14T05:19:30;12.40;99.90
16995;DHT22;8614;48.522;9.206;2022-10-14T05:21:57;12.40;99.90
16995;DHT22;8614;48.522;9.206;2022-10-14T05:24:39;12.40;99.90
16995;DHT22;8614;48.522;9.206;2022-10-14T05:27:07;12.40;99.90
16995;DHT22;8614;48.522;9.206;2022-10-14T05:29:34;12.40;99.90
16995;DHT22;8614;48.522;9.206;2022-10-14T05:32:01;12.40;99.90
16995;DHT22;8614;48.522;9.206;2022-10-14T05:34:36;12.40;99.90
16995;DHT22;8614;48.522;9.206;2022-10-14T05:37:07;12.40;99.90
16995;DHT22;8614;48.522;9.206;2022-10-14T05:39:42;12.30;99.90
16995;DHT22;8614;48.522;9.206;2022-10-14T05:42:10;12.30;99.90
16995;DHT22;8614;48.522;9.206;2022-10-14T05:44:41;12.40;99.90
16995;DHT22;8614;48.522;9.206;2022-10-14T05:47:09;12.40;99.90
16995;DHT22;8614;48.522;9.206;2022-10-14T05:49:37;12.40;99.90
16995;DHT22;8614;48.522;9.206;2022-10-14T05:52:04;12.40;99.90
16995;DHT22;8614;48.522;9.206;2022-10-14T05:54:32;12.50;99.90
16995;DHT22;8614;48.522;9.206;2022-10-14T05:57:03;12.50;99.90
16995;DHT22;8614;48.522;9.206;2022-10-14T05:59:30;12.50;99.90
16995;DHT22;8614;48.522;9.206;2022-10-14T06:01:59;12.40;99.90
16995;DHT22;8614;48.522;9.206;2022-10-14T06:04:26;12.50;99.90
16995;DHT22;8614;48.522;9.206;2022-10-14T06:06:54;12.50;99.90
16995;DHT22;8614;48.522;9.206;2022-10-14T06:09:21;12.50;99.90
16995;DHT22;8614;48.522;9.206;2022-10-14T06:11:48;12.60;99.90
16995;DHT22;8614;48.522;9.206;2022-10-14T06:14:16;12.60;99.90
16995;DHT22;8614;48.522;9.206;2022-10-14T06:16:46;12.70;99.90
16995;DHT22;8614;48.522;9.206;2022-10-14T06:19:14;12.70;99.90
16995;DHT22;8614;48.522;9.206;2022-10-14T06:21:41;12.80;99.90
16995;DHT22;8614;48.522;9.206;2022-10-14T06:24:09;12.80;99.90
16995;DHT22;8614;48.522;9.206;2022-10-14T06:26:36;12.80;99.90
16995;DHT22;8614;48.522;9.206;2022-10-14T06:29:03;12.80;99.90
16995;DHT22;8614;48.522;9.206;2022-10-14T06:31:31;12.80;99.90
16995;DHT22;8614;48.522;9.206;2022-10-14T06:33:58;12.80;99.90
16995;DHT22;8614;48.522;9.206;2022-10-14T06:36:25;12.80;99.90
16995;DHT22;8614;48.522;9.206;2022-10-14T06:38:53;12.80;99.90
16995;DHT22;8614;48.522;9.206;2022-10-14T06:41:20;12.80;99.90
16995;DHT22;8614;48.522;9.206;2022-10-14T06:43:47;12.70;99.90
16995;DHT22;8614;48.522;9.206;2022-10-14T06:46:14;12.80;99.90
16995;DHT22;8614;48.522;9.206;2022-10-14T06:48:42;12.80;99.90
16995;DHT22;8614;48.522;9.206;2022-10-14T06:51:09;12.80;99.90
16995;DHT22;8614;48.522;9.206;2022-10-14T06:53:36;12.90;99.90
16995;DHT22;8614;48.522;9.206;2022-10-14T06:56:04;13.00;99.90
16995;DHT22;8614;48.522;9.206;2022-10-14T06:58:32;13.10;99.90
16995;DHT22;8614;48.522;9.206;2022-10-14T07:01:02;13.30;99.90
16995;DHT22;8614;48.522;9.206;2022-10-14T07:03:30;13.30;99.90
16995;DHT22;8614;48.522;9.206;2022-10-14T07:06:01;13.40;99.90
16995;DHT22;8614;48.522;9.206;2022-10-14T07:08:28;13.50;99.90
16995;DHT22;8614;48.522;9.206;2022-10-14T07:10:55;13.60;99.90
16995;DHT22;8614;48.522;9.206;2022-10-14T07:13:21;13.60;99.90
16995;DHT22;8614;48.522;9.206;2022-10-14T07:15:49;13.70;99.90
16995;DHT22;8614;48.522;9.206;2022-10-14T07:18:17;13.80;99.90
16995;DHT22;8614;48.522;9.206;2022-10-14T07:20:43;13.80;99.90
16995;DHT22;8614;48.522;9.206;2022-10-14T07:23:13;13.80;99.90
16995;DHT22;8614;48.522;9.206;2022-10-14T07:25:40;13.80;99.90
16995;DHT22;8614;48.522;9.206;2022-10-14T07:28:07;13.90;99.90
16995;DHT22;8614;48.522;9.206;2022-10-14T07:30:34;14.10;99.90
16995;DHT22;8614;48.522;9.206;2022-10-14T07:33:01;14.20;99.90
16995;DHT22;8614;48.522;9.206;2022-10-14T07:35:28;14.30;99.90
16995;DHT22;8614;48.522;9.206;2022-10-14T07:37:57;14.40;99.90
16995;DHT22;8614;48.522;9.206;2022-10-14T07:40:26;14.50;99.90
16995;DHT22;8614;48.522;9.206;2022-10-14T07:42:53;14.60;99.90
16995;DHT22;8614;48.522;9.206;2022-10-14T07:45:20;14.70;99.90
16995;DHT22;8614;48.522;9.206;2022-10-14T07:47:48;14.70;99.90
16995;DHT22;8614;48.522;9.206;2022-10-14T07:50:16;14.70;99.90
16995;DHT22;8614;48.522;9.206;2022-10-14T07:52:43;14.80;99.90
16995;DHT22;8614;48.522;9.206;2022-10-14T07:55:10;14.90;99.90
16995;DHT22;8614;48.522;9.206;2022-10-14T07:57:38;15.10;99.90
16995;DHT22;8614;48.522;9.206;2022-10-14T08:00:06;15.20;99.90
16995;DHT22;8614;48.522;9.206;2022-10-14T08:02:39;15.30;99.90
16995;DHT22;8614;48.522;9.206;2022-10-14T08:05:06;15.40;99.90
16995;DHT22;8614;48.522;9.206;2022-10-14T08:07:33;15.40;99.90
16995;DHT22;8614;48.522;9.206;2022-10-14T08:10:00;15.40;99.90
16995;DHT22;8614;48.522;9.206;2022-10-14T08:12:27;15.40;99.90
16995;DHT22;8614;48.522;9.206;2022-10-14T08:14:55;15.40;99.90
16995;DHT22;8614;48.522;9.206;2022-10-14T08:17:22;15.40;99.90
16995;DHT22;8614;48.522;9.206;2022-10-14T08:19:50;15.50;99.90
16995;DHT22;8614;48.522;9.206;2022-10-14T08:22:17;15.50;99.90
16995;DHT22;8614;48.522;9.206;2022-10-14T08:24:44;15.70;99.90
16995;DHT22;8614;48.522;9.206;2022-10-14T08:27:11;15.70;99.90
16995;DHT22;8614;48.522;9.206;2022-10-14T08:29:38;15.70;99.90
16995;DHT22;8614;48.522;9.206;2022-10-14T08:32:06;15.70;99.90
16995;DHT22;8614;48.522;9.206;2022-10-14T08:34:33;15.80;99.90
16995;DHT22;8614;48.522;9.206;2022-10-14T08:37:00;15.90;99.90
16995;DHT22;8614;48.522;9.206;2022-10-14T08:39:27;16.00;99.90
16995;DHT22;8614;48.522;9.206;2022-10-14T08:42:16;16.20;99.90
16995;DHT22;8614;48.522;9.206;2022-10-14T08:44:49;16.30;99.90
16995;DHT22;8614;48.522;9.206;2022-10-14T08:47:24;16.40;99.90
16995;DHT22;8614;48.522;9.206;2022-10-14T08:49:59;16.60;99.90
16995;DHT22;8614;48.522;9.206;2022-10-14T08:52:31;16.90;99.90
16995;DHT22;8614;48.522;9.206;2022-10-14T08:55:02;17.00;99.90
16995;DHT22;8614;48.522;9.206;2022-10-14T08:57:34;17.20;99.90
16995;DHT22;8614;48.522;9.206;2022-10-14T09:00:05;17.40;99.90
16995;DHT22;8614;48.522;9.206;2022-10-14T09:02:39;17.60;99.90
16995;DHT22;8614;48.522;9.206;2022-10-14T09:05:13;17.70;99.90
16995;DHT22;8614;48.522;9.206;2022-10-14T09:07:40;17.80;99.90
16995;DHT22;8614;48.522;9.206;2022-10-14T09:10:13;17.90;99.90
16995;DHT22;8614;48.522;9.206;2022-10-14T09:12:41;17.80;99.90
16995;DHT22;8614;48.522;9.206;2022-10-14T09:15:16;17.70;99.90
16995;DHT22;8614;48.522;9.206;2022-10-14T09:17:51;17.70;99.90
16995;DHT22;8614;48.522;9.206;2022-10-14T09:20:23;17.70;99.90
16995;DHT22;8614;48.522;9.206;2022-10-14T09:22:56;17.80;99.90
16995;DHT22;8614;48.522;9.206;2022-10-14T09:25:26;17.70;99.90
16995;DHT22;8614;48.522;9.206;2022-10-14T09:27:54;17.60;99.90
16995;DHT22;8614;48.522;9.206;2022-10-14T09:30:21;17.80;99.90
16995;DHT22;8614;48.522;9.206;2022-10-14T09:32:51;18.00;99.90
16995;DHT22;8614;48.522;9.206;2022-10-14T09:35:22;18.30;99.90
16995;DHT22;8614;48.522;9.206;2022-10-14T09:37:50;18.50;99.90
16995;DHT22;8614;48.522;9.206;2022-10-14T09:40:23;18.50;99.90
16995;DHT22;8614;48.522;9.206;2022-10-14T09:42:56;18.60;99.90
16995;DHT22;8614;48.522;9.206;2022-10-14T09:45:25;18.50;99.90
16995;DHT22;8614;48.522;9.206;2022-10-14T09:47:57;18.60;99.90
16995;DHT22;8614;48.522;9.206;2022-10-14T09:50:27;18.50;99.90
16995;DHT22;8614;48.522;9.206;2022-10-14T09:52:59;18.50;99.90
16995;DHT22;8614;48.522;9.206;2022-10-14T09:55:27;18.60;99.90
16995;DHT22;8614;48.522;9.206;2022-10-14T09:58:00;18.70;99.90
16995;DHT22;8614;48.522;9.206;2022-10-14T10:00:30;18.60;99.90
16995;DHT22;8614;48.522;9.206;2022-10-14T10:02:59;18.60;99.90
16995;DHT22;8614;48.522;9.206;2022-10-14T10:05:28;18.70;99.90
16995;DHT22;8614;48.522;9.206;2022-10-14T10:08:00;18.70;99.90
16995;DHT22;8614;48.522;9.206;2022-10-14T10:10:28;18.90;99.90
16995;DHT22;8614;48.522;9.206;2022-10-14T10:12:56;18.90;99.90
16995;DHT22;8614;48.522;9.206;2022-10-14T10:15:23;19.00;99.90
16995;DHT22;8614;48.522;9.206;2022-10-14T10:17:51;19.20;99.90
16995;DHT22;8614;48.522;9.206;2022-10-14T10:20:22;19.30;99.90
16995;DHT22;8614;48.522;9.206;2022-10-14T10:22:56;19.40;99.90
16995;DHT22;8614;48.522;9.206;2022-10-14T10:25:25;19.40;99.90
16995;DHT22;8614;48.522;9.206;2022-10-14T10:27:56;19.40;99.90
16995;DHT22;8614;48.522;9.206;2022-10-14T10:30:25;19.30;99.90
16995;DHT22;8614;48.522;9.206;2022-10-14T10:33:08;19.20;99.90
16995;DHT22;8614;48.522;9.206;2022-10-14T10:35:55;19.20;99.90
16995;DHT22;8614;48.522;9.206;2022-10-14T10:38:29;19.10;99.90
16995;DHT22;8614;48.522;9.206;2022-10-14T10:41:09;19.10;99.90
16995;DHT22;8614;48.522;9.206;2022-10-14T10:43:44;19.10;99.90
16995;DHT22;8614;48.522;9.206;2022-10-14T10:46:33;19.10;99.90
16995;DHT22;8614;48.522;9.206;2022-10-14T10:49:04;19.10;99.90
16995;DHT22;8614;48.522;9.206;2022-10-14T10:51:42;19.20;99.90
16995;DHT22;8614;48.522;9.206;2022-10-14T10:54:19;19.10;99.90
16995;DHT22;8614;48.522;9.206;2022-10-14T10:56:52;19.00;99.90
16995;DHT22;8614;48.522;9.206;2022-10-14T10:59:40;18.90;99.90
16995;DHT22;8614;48.522;9.206;2022-10-14T11:02:43;18.70;99.90
16995;DHT22;8614;48.522;9.206;2022-10-14T11:05:18;18.50;99.90
16995;DHT22;8614;48.522;9.206;2022-10-14T11:07:55;18.30;99.90
16995;DHT22;8614;48.522;9.206;2022-10-14T11:10:49;18.20;99.90
16995;DHT22;8614;48.522;9.206;2022-10-14T11:13:43;18.00;99.90
16995;DHT22;8614;48.522;9.206;2022-10-14T11:16:16;17.90;99.90
16995;DHT22;8614;48.522;9.206;2022-10-14T11:18:48;17.80;99.90
16995;DHT22;8614;48.522;9.206;2022-10-14T11:21:21;17.80;99.90
16995;DHT22;8614;48.522;9.206;2022-10-14T11:24:01;17.90;99.90
16995;DHT22;8614;48.522;9.206;2022-10-14T11:26:43;17.90;99.90
16995;DHT22;8614;48.522;9.206;2022-10-14T11:29:24;18.00;99.90
16995;DHT22;8614;48.522;9.206;2022-10-14T11:32:00;18.20;99.90
16995;DHT22;8614;48.522;9.206;2022-10-14T11:34:41;18.30;99.90
16995;DHT22;8614;48.522;9.206;2022-10-14T11:37:19;18.50;99.90
16995;DHT22;8614;48.522;9.206;2022-10-14T11:39:56;18.60;99.90
16995;DHT22;8614;48.522;9.206;2022-10-14T11:42:27;18.80;99.90
16995;DHT22;8614;48.522;9.206;2022-10-14T11:47:47;18.90;99.90
16995;DHT22;8614;48.522;9.206;2022-10-14T11:50:18;19.00;99.90
16995;DHT22;8614;48.522;9.206;2022-10-14T11:52:51;19.00;99.90
16995;DHT22;8614;48.522;9.206;2022-10-14T11:55:23;18.90;99.90
16995;DHT22;8614;48.522;9.206;2022-10-14T11:57:53;19.00;99.90
16995;DHT22;8614;48.522;9.206;2022-10-14T12:00:42;19.10;99.90
16995;DHT22;8614;48.522;9.206;2022-10-14T12:03:23;19.30;99.90
16995;DHT22;8614;48.522;9.206;2022-10-14T12:05:56;19.30;99.90
16995;DHT22;8614;48.522;9.206;2022-10-14T12:08:29;19.20;99.90
16995;DHT22;8614;48.522;9.206;2022-10-14T12:11:02;19.40;99.90
16995;DHT22;8614;48.522;9.206;2022-10-14T12:13:33;19.50;99.90
16995;DHT22;8614;48.522;9.206;2022-10-14T12:16:02;19.80;99.90
16995;DHT22;8614;48.522;9.206;2022-10-14T12:18:30;20.00;99.90
16995;DHT22;8614;48.522;9.206;2022-10-14T12:21:11;19.90;99.90
16995;DHT22;8614;48.522;9.206;2022-10-14T12:23:44;19.90;99.90
16995;DHT22;8614;48.522;9.206;2022-10-14T12:26:26;19.80;99.90
16995;DHT22;8614;48.522;9.206;2022-10-14T12:28:58;19.70;99.90
16995;DHT22;8614;48.522;9.206;2022-10-14T12:31:36;19.60;99.90
16995;DHT22;8614;48.522;9.206;2022-10-14T12:34:28;19.60;99.90
16995;DHT22;8614;48.522;9.206;2022-10-14T12:36:56;19.50;99.90
16995;DHT22;8614;48.522;9.206;2022-10-14T12:39:32;19.40;99.90
16995;DHT22;8614;48.522;9.206;2022-10-14T12:42:03;19.30;99.90
16995;DHT22;8614;48.522;9.206;2022-10-14T12:44:34;19.30;99.90
16995;DHT22;8614;48.522;9.206;2022-10-14T12:47:03;19.20;99.90
16995;DHT22;8614;48.522;9.206;2022-10-14T12:49:32;19.10;99.90
16995;DHT22;8614;48.522;9.206;2022-10-14T12:52:02;19.00;99.90
16995;DHT22;8614;48.522;9.206;2022-10-14T12:54:30;18.90;99.90
16995;DHT22;8614;48.522;9.206;2022-10-14T12:57:02;18.90;99.90
16995;DHT22;8614;48.522;9.206;2022-10-14T12:59:31;18.80;99.90
16995;DHT22;8614;48.522;9.206;2022-10-14T13:02:02;18.70;99.90
16995;DHT22;8614;48.522;9.206;2022-10-14T13:04:31;18.70;99.90
16995;DHT22;8614;48.522;9.206;2022-10-14T13:07:38;18.60;99.90
16995;DHT22;8614;48.522;9.206;2022-10-14T13:11:07;18.50;99.90
16995;DHT22;8614;48.522;9.206;2022-10-14T13:14:17;18.30;99.90
16995;DHT22;8614;48.522;9.206;2022-10-14T13:19:48;18.20;99.90
16995;DHT22;8614;48.522;9.206;2022-10-14T13:22:39;18.20;99.90
16995;DHT22;8614;48.522;9.206;2022-10-14T13:25:18;18.10;99.90
16995;DHT22;8614;48.522;9.206;2022-10-14T13:27:56;18.10;99.90
16995;DHT22;8614;48.522;9.206;2022-10-14T13:30:34;18.10;99.90
16995;DHT22;8614;48.522;9.206;2022-10-14T13:33:10;18.00;99.90
16995;DHT22;8614;48.522;9.206;2022-10-14T13:35:47;18.00;99.90
16995;DHT22;8614;48.522;9.206;2022-10-14T13:38:17;17.90;99.90
16995;DHT22;8614;48.522;9.206;2022-10-14T13:40:48;17.80;99.90
16995;DHT22;8614;48.522;9.206;2022-10-14T13:43:19;17.80;99.90
16995;DHT22;8614;48.522;9.206;2022-10-14T13:45:51;17.70;99.90
16995;DHT22;8614;48.522;9.206;2022-10-14T13:48:23;17.60;99.90
16995;DHT22;8614;48.522;9.206;2022-10-14T13:50:53;17.60;99.90
16995;DHT22;8614;48.522;9.206;2022-10-14T13:53:23;17.60;99.90
16995;DHT22;8614;48.522;9.206;2022-10-14T13:55:50;17.60;99.90
16995;DHT22;8614;48.522;9.206;2022-10-14T13:58:19;17.50;99.90
16995;DHT22;8614;48.522;9.206;2022-10-14T14:00:57;17.60;99.90
16995;DHT22;8614;48.522;9.206;2022-10-14T14:03:30;17.50;99.90
16995;DHT22;8614;48.522;9.206;2022-10-14T14:05:58;17.50;99.90
16995;DHT22;8614;48.522;9.206;2022-10-14T14:08:28;17.50;99.90
16995;DHT22;8614;48.522;9.206;2022-10-14T14:10:58;17.50;99.90
16995;DHT22;8614;48.522;9.206;2022-10-14T14:13:26;17.50;99.90
16995;DHT22;8614;48.522;9.206;2022-10-14T14:15:55;17.40;99.90
16995;DHT22;8614;48.522;9.206;2022-10-14T14:18:27;17.40;99.90
16995;DHT22;8614;48.522;9.206;2022-10-14T14:20:55;17.30;99.90
16995;DHT22;8614;48.522;9.206;2022-10-14T14:23:24;17.30;99.90
16995;DHT22;8614;48.522;9.206;2022-10-14T14:25:52;17.30;99.90
16995;DHT22;8614;48.522;9.206;2022-10-14T14:28:19;17.40;99.90
16995;DHT22;8614;48.522;9.206;2022-10-14T14:30:49;17.40;99.90
16995;DHT22;8614;48.522;9.206;2022-10-14T14:33:27;17.40;99.90
16995;DHT22;8614;48.522;9.206;2022-10-14T14:35:56;17.40;99.90
16995;DHT22;8614;48.522;9.206;2022-10-14T14:38:28;17.50;99.90
16995;DHT22;8614;48.522;9.206;2022-10-14T14:41:03;17.50;99.90
16995;DHT22;8614;48.522;9.206;2022-10-14T14:43:31;17.60;99.90
16995;DHT22;8614;48.522;9.206;2022-10-14T14:46:00;17.60;99.90
16995;DHT22;8614;48.522;9.206;2022-10-14T14:48:29;17.60;99.90
16995;DHT22;8614;48.522;9.206;2022-10-14T14:50:57;17.60;99.90
16995;DHT22;8614;48.522;9.206;2022-10-14T14:53:26;17.60;99.90
16995;DHT22;8614;48.522;9.206;2022-10-14T14:56:00;17.60;99.90
16995;DHT22;8614;48.522;9.206;2022-10-14T14:58:31;17.60;99.90
16995;DHT22;8614;48.522;9.206;2022-10-14T15:01:01;17.50;99.90
16995;DHT22;8614;48.522;9.206;2022-10-14T15:03:51;17.50;99.90
16995;DHT22;8614;48.522;9.206;2022-10-14T15:06:18;17.50;99.90
16995;DHT22;8614;48.522;9.206;2022-10-14T15:08:48;17.50;99.90
16995;DHT22;8614;48.522;9.206;2022-10-14T15:11:16;17.50;99.90
16995;DHT22;8614;48.522;9.206;2022-10-14T15:13:47;17.40;99.90
16995;DHT22;8614;48.522;9.206;2022-10-14T15:16:33;17.40;99.90
16995;DHT22;8614;48.522;9.206;2022-10-14T15:19:25;17.40;99.90
16995;DHT22;8614;48.522;9.206;2022-10-14T15:22:19;17.40;99.90
16995;DHT22;8614;48.522;9.206;2022-10-14T15:25:07;17.30;99.90
16995;DHT22;8614;48.522;9.206;2022-10-14T15:30:29;17.20;99.90
16995;DHT22;8614;48.522;9.206;2022-10-14T15:33:02;17.10;99.90
16995;DHT22;8614;48.522;9.206;2022-10-14T15:35:31;17.00;99.90
16995;DHT22;8614;48.522;9.206;2022-10-14T15:37:59;17.00;99.90
16995;DHT22;8614;48.522;9.206;2022-10-14T15:40:28;16.90;99.90
16995;DHT22;8614;48.522;9.206;2022-10-14T15:42:56;16.70;99.90
16995;DHT22;8614;48.522;9.206;2022-10-14T15:45:23;16.60;99.90
16995;DHT22;8614;48.522;9.206;2022-10-14T15:47:53;16.60;99.90
16995;DHT22;8614;48.522;9.206;2022-10-14T15:50:23;16.50;99.90
16995;DHT22;8614;48.522;9.206;2022-10-14T15:52:53;16.50;99.90
16995;DHT22;8614;48.522;9.206;2022-10-14T15:55:23;16.40;99.90
16995;DHT22;8614;48.522;9.206;2022-10-14T15:57:50;16.40;99.90
16995;DHT22;8614;48.522;9.206;2022-10-14T16:00:18;16.30;99.90
16995;DHT22;8614;48.522;9.206;2022-10-14T16:02:47;16.20;99.90
16995;DHT22;8614;48.522;9.206;2022-10-14T16:05:15;16.20;99.90
16995;DHT22;8614;48.522;9.206;2022-10-14T16:07:42;16.10;99.90
16995;DHT22;8614;48.522;9.206;2022-10-14T16:10:13;16.10;99.90
16995;DHT22;8614;48.522;9.206;2022-10-14T16:12:41;16.10;99.90
16995;DHT22;8614;48.522;9.206;2022-10-14T16:15:22;16.00;99.90
16995;DHT22;8614;48.522;9.206;2022-10-14T16:17:51;16.00;99.90
16995;DHT22;8614;48.522;9.206;2022-10-14T16:20:18;15.90;99.90
16995;DHT22;8614;48.522;9.206;2022-10-14T16:22:45;15.90;99.90